首页
METAR-TAF:

METAR-TAF

机场 :

史密斯堡, 阿肯色州, 美国

纬度: 35-20-01N, 经度: 094-21-54W, 海拔: 142米

当前天气观测

该预报发布于22分钟前的13:53 UTC
风速6节,风向西转西南
温度 -1°C
湿度 80%
气压 1017 hPa
能見度: 16.1公里
天空无云

METAR: KFSM 161353Z 25006KT 10SM CLR M01/M04 A3003 RMK AO2 SLP173 T10111044

时间: 08:15 (14:15 UTC)

预报

该预报发布于2小时和55分钟前的11:20 UTC
预报有效从16日的 12点(UTC)到 17日的 12点(UTC)
风速7节,风向西
能見度: 10公里
散云层高于3500英尺
散云层高于25000英尺
短暂存在
从 16日的 12点(UTC)到 16日的 14点(UTC)
多云层高于2500英尺
从 17日的 0000点(UTC)
风速3节,风向西
能見度: 10公里
散云层高于25000英尺

TAF: KFSM 161120Z 1612/1712 27007KT P6SM SCT035 SCT250 TEMPO 1612/1614 BKN025 FM170000 28003KT P6SM SCT250

超过4000个机场的气象观测和天气预报(METAR&TAF报告)。

可查询的气象台以黄色和红色小点在地图上表示。

将鼠标移到小点上方,可查看气象台名称。

然后点击查看天气观测和预报。

如需切换地图:点击带黑十字的绿色按钮放大地图;点击带横线的绿色按钮缩小地图;或者点击绿色箭头查看邻近地区的地图。


METAR-TAF: